createdAt,value
2018-09-18T00:01:37.126Z,100.00
2018-09-18T00:04:41.432Z,100.00
2018-09-18T00:07:45.857Z,100.00
2018-09-18T00:10:50.160Z,100.00
2018-09-18T00:13:54.425Z,100.00
2018-09-18T00:16:58.739Z,100.00
2018-09-18T00:20:03.148Z,100.00
2018-09-18T00:23:07.689Z,100.00
2018-09-18T00:26:11.992Z,100.00
2018-09-18T00:29:16.311Z,100.00
2018-09-18T00:32:20.598Z,100.00
2018-09-18T00:35:24.928Z,100.00
2018-09-18T00:38:29.261Z,100.00
2018-09-18T00:41:33.600Z,100.00
2018-09-18T00:44:37.928Z,100.00
2018-09-18T00:47:42.262Z,100.00
2018-09-18T00:50:46.563Z,100.00
2018-09-18T00:53:50.996Z,100.00
2018-09-18T00:56:55.315Z,100.00
2018-09-18T00:59:59.626Z,100.00
2018-09-18T01:03:03.956Z,100.00
2018-09-18T01:06:08.410Z,100.00
2018-09-18T01:09:12.723Z,100.00
2018-09-18T01:12:16.960Z,100.00
2018-09-18T01:15:21.231Z,100.00
2018-09-18T01:18:29.628Z,100.00
2018-09-18T01:21:33.976Z,100.00
2018-09-18T01:24:38.266Z,100.00
2018-09-18T01:27:42.600Z,100.00
2018-09-18T01:30:46.885Z,100.00
2018-09-18T01:33:51.153Z,100.00
2018-09-18T01:36:55.467Z,100.00
2018-09-18T01:39:59.796Z,100.00
2018-09-18T01:43:04.110Z,100.00
2018-09-18T01:46:08.466Z,100.00
2018-09-18T01:49:12.719Z,100.00
2018-09-18T01:52:17.232Z,100.00
2018-09-18T01:55:21.534Z,100.00
2018-09-18T01:58:25.831Z,100.00
2018-09-18T02:01:30.169Z,100.00
2018-09-18T02:04:34.473Z,100.00
2018-09-18T02:20:44.404Z,100.00
2018-09-18T02:23:48.753Z,100.00
2018-09-18T02:26:53.185Z,100.00
2018-09-18T02:29:57.449Z,100.00
2018-09-18T02:33:01.791Z,100.00
2018-09-18T02:36:06.534Z,100.00
2018-09-18T02:39:12.446Z,100.00
2018-09-18T02:42:16.810Z,100.00
2018-09-18T02:45:21.156Z,100.00
2018-09-18T02:48:25.471Z,100.00
2018-09-18T02:51:29.760Z,100.00
2018-09-18T02:54:34.101Z,100.00
2018-09-18T02:57:38.411Z,100.00
2018-09-18T03:00:42.773Z,100.00
2018-09-18T03:03:47.160Z,100.00
2018-09-18T03:06:51.494Z,100.00
2018-09-18T03:09:55.815Z,100.00
2018-09-18T03:13:00.075Z,100.00
2018-09-18T03:16:04.445Z,100.00
2018-09-18T03:19:08.732Z,100.00
2018-09-18T03:22:13.008Z,100.00
2018-09-18T03:25:17.282Z,100.00
2018-09-18T03:28:21.562Z,100.00
2018-09-18T03:31:25.857Z,100.00
2018-09-18T03:34:30.169Z,100.00
2018-09-18T03:37:34.469Z,100.00
2018-09-18T03:40:38.765Z,100.00
2018-09-18T03:43:43.033Z,100.00
2018-09-18T03:46:47.385Z,100.00
2018-09-18T03:49:52.861Z,100.00
2018-09-18T03:52:57.135Z,100.00
2018-09-18T03:56:01.414Z,100.00
2018-09-18T03:59:05.928Z,100.00
2018-09-18T04:02:10.217Z,100.00
2018-09-18T04:05:14.508Z,100.00
2018-09-18T04:08:18.858Z,100.00
2018-09-18T04:11:23.161Z,100.00
2018-09-18T04:14:27.481Z,100.00
2018-09-18T04:17:31.851Z,100.00
2018-09-18T04:20:36.066Z,100.00
2018-09-18T04:23:40.343Z,100.00
2018-09-18T04:26:44.587Z,99.96
2018-09-18T04:29:48.872Z,99.50
2018-09-18T04:32:53.160Z,99.05
2018-09-18T04:35:57.451Z,98.88
2018-09-18T04:39:02.005Z,98.97
2018-09-18T04:42:06.374Z,99.06
2018-09-18T04:45:10.705Z,99.09
2018-09-18T04:48:15.350Z,98.74
2018-09-18T04:51:19.596Z,98.49
2018-09-18T04:54:23.977Z,98.79
2018-09-18T04:57:28.302Z,98.69
2018-09-18T05:00:32.631Z,99.01
2018-09-18T05:03:36.952Z,98.75
2018-09-18T05:06:41.305Z,98.60
2018-09-18T05:09:45.600Z,99.39
2018-09-18T05:12:49.923Z,98.29
2018-09-18T05:15:54.233Z,98.59
2018-09-18T05:18:58.509Z,98.17
2018-09-18T05:22:02.880Z,98.22
2018-09-18T05:25:07.762Z,98.17
2018-09-18T05:28:12.390Z,97.59
2018-09-18T05:31:16.736Z,97.71
2018-09-18T05:34:21.025Z,97.85
2018-09-18T05:37:25.301Z,97.19
2018-09-18T05:40:29.573Z,97.60
2018-09-18T05:43:34.080Z,97.16
2018-09-18T05:46:38.348Z,96.61
2018-09-18T05:49:42.687Z,96.91
2018-09-18T05:52:47.007Z,96.46
2018-09-18T05:55:51.315Z,95.47
2018-09-18T05:58:55.637Z,95.34
2018-09-18T06:02:00.065Z,94.23
2018-09-18T06:05:04.400Z,94.14
2018-09-18T06:08:08.658Z,93.74
2018-09-18T06:11:13.054Z,93.34
2018-09-18T06:14:17.297Z,92.60
2018-09-18T06:17:21.581Z,92.53
2018-09-18T06:20:25.873Z,92.61
2018-09-18T06:23:30.223Z,92.54
2018-09-18T06:26:34.515Z,92.08
2018-09-18T06:29:38.913Z,92.34
2018-09-18T06:32:43.245Z,91.70
2018-09-18T06:35:47.621Z,90.11
2018-09-18T06:38:51.965Z,90.06
2018-09-18T06:41:56.236Z,89.37
2018-09-18T06:45:00.582Z,88.72
2018-09-18T06:48:04.993Z,87.78
2018-09-18T06:51:09.165Z,87.04
2018-09-18T06:54:13.701Z,86.47
2018-09-18T06:57:18.089Z,86.44
2018-09-18T07:00:22.339Z,86.15
2018-09-18T07:03:26.674Z,84.78
2018-09-18T07:06:31.017Z,85.26
2018-09-18T07:09:35.335Z,85.55
2018-09-18T07:12:39.664Z,84.58
2018-09-18T07:15:43.983Z,84.69
2018-09-18T07:18:48.274Z,83.27
2018-09-18T07:21:52.625Z,82.51
2018-09-18T07:24:56.968Z,82.07
2018-09-18T07:28:01.229Z,81.83
2018-09-18T07:31:05.576Z,81.15
2018-09-18T07:34:09.948Z,80.78
2018-09-18T07:37:14.260Z,79.99
2018-09-18T07:40:18.819Z,79.48
2018-09-18T07:43:23.099Z,78.92
2018-09-18T07:46:27.403Z,78.76
2018-09-18T07:49:31.723Z,78.05
2018-09-18T07:52:36.074Z,77.38
2018-09-18T07:55:40.520Z,77.59
2018-09-18T07:58:44.806Z,77.43
2018-09-18T08:01:49.094Z,76.42
2018-09-18T08:04:53.532Z,76.19
2018-09-18T08:07:57.825Z,75.84
2018-09-18T08:11:02.178Z,75.03
2018-09-18T08:14:06.380Z,74.19
2018-09-18T08:17:10.754Z,74.14
2018-09-18T08:20:15.076Z,74.12
2018-09-18T08:23:19.372Z,73.64
2018-09-18T08:26:23.616Z,73.76
2018-09-18T08:29:27.924Z,73.21
2018-09-18T08:32:32.256Z,72.71
2018-09-18T08:35:36.538Z,72.73
2018-09-18T08:38:40.877Z,71.51
2018-09-18T08:41:45.209Z,70.61
2018-09-18T08:44:49.562Z,70.46
2018-09-18T08:47:53.838Z,70.90
2018-09-18T08:50:58.741Z,69.51
2018-09-18T08:54:03.081Z,69.29
2018-09-18T08:57:07.400Z,69.73
2018-09-18T09:00:11.689Z,68.52
2018-09-18T09:03:16.000Z,67.64
2018-09-18T09:06:20.320Z,65.33
2018-09-18T09:09:24.747Z,64.49
2018-09-18T09:12:29.047Z,63.84
2018-09-18T09:15:33.411Z,64.27
2018-09-18T09:18:38.567Z,63.52
2018-09-18T09:21:42.826Z,63.11
2018-09-18T09:24:47.189Z,63.72
2018-09-18T09:27:51.568Z,62.01
2018-09-18T09:30:56.060Z,62.72
2018-09-18T09:34:00.334Z,61.70
2018-09-18T09:37:04.697Z,62.11
2018-09-18T09:40:08.960Z,62.90
2018-09-18T09:43:13.309Z,62.09
2018-09-18T09:46:17.585Z,62.05
2018-09-18T09:49:21.855Z,61.97
2018-09-18T09:52:26.208Z,62.89
2018-09-18T09:55:30.707Z,61.82
2018-09-18T09:58:35.026Z,62.40
2018-09-18T10:01:43.179Z,62.49
2018-09-18T10:04:47.703Z,60.54
2018-09-18T10:07:52.020Z,62.01
2018-09-18T10:10:56.496Z,60.13
2018-09-18T10:14:00.636Z,60.50
2018-09-18T10:17:05.154Z,59.74
2018-09-18T10:20:09.538Z,59.50
2018-09-18T10:23:13.918Z,59.41
2018-09-18T10:26:18.400Z,58.93
2018-09-18T10:29:22.857Z,58.52
2018-09-18T10:32:27.236Z,58.82
2018-09-18T10:35:31.511Z,60.14
2018-09-18T10:38:35.828Z,60.17
2018-09-18T10:41:40.275Z,59.33
2018-09-18T10:44:44.531Z,59.24
2018-09-18T10:47:48.863Z,58.04
2018-09-18T10:50:53.153Z,59.24
2018-09-18T10:53:57.488Z,58.33
2018-09-18T10:57:01.810Z,57.73
2018-09-18T11:00:07.533Z,57.97
2018-09-18T11:03:11.884Z,57.19
2018-09-18T11:06:16.171Z,58.65
2018-09-18T11:09:20.463Z,58.62
2018-09-18T11:12:24.787Z,58.04
2018-09-18T11:15:29.132Z,57.58
2018-09-18T11:18:33.481Z,56.28
2018-09-18T11:21:37.772Z,56.25
2018-09-18T11:24:42.080Z,56.36
2018-09-18T11:27:46.329Z,55.92
2018-09-18T11:30:50.811Z,55.94
2018-09-18T11:33:55.364Z,56.36
2018-09-18T11:36:59.723Z,55.73
2018-09-18T11:40:04.050Z,55.25
2018-09-18T11:43:08.388Z,55.48
2018-09-18T11:46:12.800Z,54.28
2018-09-18T11:49:17.112Z,55.91
2018-09-18T11:52:21.434Z,53.94
2018-09-18T11:55:25.736Z,54.96
2018-09-18T11:58:30.148Z,54.92
2018-09-18T12:01:34.569Z,53.55
2018-09-18T12:04:38.921Z,54.21
2018-09-18T12:07:43.100Z,55.02
2018-09-18T12:10:47.465Z,54.23
2018-09-18T12:13:51.795Z,53.67
2018-09-18T12:16:56.155Z,53.51
2018-09-18T12:20:00.366Z,52.95
2018-09-18T12:23:04.753Z,54.22
2018-09-18T12:26:09.049Z,53.64
2018-09-18T12:29:13.372Z,53.37
2018-09-18T12:32:17.693Z,53.28
2018-09-18T12:35:22.023Z,51.48
2018-09-18T12:38:26.376Z,51.76
2018-09-18T12:41:30.687Z,51.94
2018-09-18T12:44:35.021Z,50.80
2018-09-18T12:47:39.321Z,51.73
2018-09-18T12:50:43.688Z,51.37
2018-09-18T12:53:48.004Z,51.35
2018-09-18T12:56:52.344Z,51.38
2018-09-18T12:59:56.608Z,49.48
2018-09-18T13:03:00.938Z,48.67
2018-09-18T13:06:08.281Z,48.85
2018-09-18T13:09:13.736Z,48.41
2018-09-18T13:12:18.119Z,48.78
2018-09-18T13:15:22.505Z,49.09
2018-09-18T13:18:26.760Z,48.34
2018-09-18T13:21:31.158Z,48.48
2018-09-18T13:24:35.501Z,47.75
2018-09-18T13:27:39.939Z,47.39
2018-09-18T13:30:44.310Z,48.06
2018-09-18T13:33:48.628Z,48.07
2018-09-18T13:36:53.055Z,47.61
2018-09-18T13:39:57.479Z,47.49
2018-09-18T13:43:01.809Z,46.39
2018-09-18T13:46:06.242Z,46.30
2018-09-18T13:49:10.651Z,46.13
2018-09-18T13:52:14.933Z,47.00
2018-09-18T13:55:19.412Z,46.64
2018-09-18T13:58:24.099Z,46.38
2018-09-18T14:01:28.461Z,46.81
2018-09-18T14:04:32.834Z,47.59
2018-09-18T14:07:37.257Z,48.17
2018-09-18T14:10:41.787Z,48.43
2018-09-18T14:13:46.803Z,48.21
2018-09-18T14:16:51.323Z,47.17
2018-09-18T14:19:55.850Z,46.47
2018-09-18T14:23:00.168Z,47.42
2018-09-18T14:26:04.535Z,47.81
2018-09-18T14:29:08.992Z,47.28
2018-09-18T14:32:13.404Z,48.67
2018-09-18T14:35:17.629Z,47.44
2018-09-18T14:38:22.154Z,48.33
2018-09-18T14:41:26.698Z,47.33
2018-09-18T14:44:31.377Z,48.09
2018-09-18T14:47:35.886Z,48.68
2018-09-18T14:50:40.445Z,47.75
2018-09-18T14:53:44.735Z,48.73
2018-09-18T14:56:49.150Z,49.14
2018-09-18T14:59:53.527Z,49.50
2018-09-18T15:02:58.132Z,48.64
2018-09-18T15:06:02.692Z,46.60
2018-09-18T15:09:09.626Z,46.93
2018-09-18T15:12:13.892Z,46.75
2018-09-18T15:15:18.259Z,47.49
2018-09-18T15:18:22.555Z,49.28
2018-09-18T15:21:27.097Z,54.81
2018-09-18T15:24:31.385Z,56.11
2018-09-18T15:27:35.811Z,57.33
2018-09-18T15:30:40.155Z,58.66
2018-09-18T15:33:44.458Z,59.60
2018-09-18T15:36:49.901Z,60.34
2018-09-18T15:39:54.283Z,59.98
2018-09-18T15:42:58.693Z,60.67
2018-09-18T15:46:03.137Z,60.52
2018-09-18T15:49:07.473Z,61.51
2018-09-18T15:52:11.908Z,63.13
2018-09-18T15:55:16.178Z,63.48
2018-09-18T15:58:20.533Z,64.47
2018-09-18T16:01:24.797Z,65.97
2018-09-18T16:04:29.068Z,67.92
2018-09-18T16:07:33.409Z,68.52
2018-09-18T16:10:37.770Z,69.28
2018-09-18T16:13:42.302Z,70.87
2018-09-18T16:16:46.709Z,72.33
2018-09-18T16:19:50.993Z,73.43
2018-09-18T16:22:55.477Z,75.19
2018-09-18T16:25:59.751Z,76.01
2018-09-18T16:29:04.073Z,78.58
2018-09-18T16:32:08.389Z,81.04
2018-09-18T16:35:12.676Z,83.69
2018-09-18T16:38:17.130Z,84.36
2018-09-18T16:41:22.585Z,84.80
2018-09-18T16:44:26.974Z,85.93
2018-09-18T16:47:31.316Z,85.74
2018-09-18T16:50:35.612Z,86.12
2018-09-18T16:53:39.926Z,86.74
2018-09-18T16:56:44.668Z,87.63
2018-09-18T16:59:49.003Z,87.78
2018-09-18T17:02:53.306Z,87.96
2018-09-18T17:05:57.709Z,85.82
2018-09-18T17:09:02.045Z,86.50
2018-09-18T17:12:06.589Z,85.94
2018-09-18T17:15:11.021Z,85.60
2018-09-18T17:18:15.443Z,85.69
2018-09-18T17:21:19.855Z,84.71
2018-09-18T17:24:24.330Z,84.92
2018-09-18T17:27:28.616Z,84.97
2018-09-18T17:30:33.083Z,85.94
2018-09-18T17:33:37.811Z,86.08
2018-09-18T17:36:42.171Z,86.92
2018-09-18T17:39:46.570Z,86.77
2018-09-18T17:42:50.861Z,87.20
2018-09-18T17:45:55.227Z,87.42
2018-09-18T17:48:59.635Z,87.96
2018-09-18T17:52:04.009Z,87.25
2018-09-18T17:55:08.650Z,88.09
2018-09-18T17:58:13.150Z,88.92
2018-09-18T18:01:17.532Z,88.48
2018-09-18T18:04:21.837Z,89.30
2018-09-18T18:07:26.260Z,89.68
2018-09-18T18:10:30.569Z,90.09
2018-09-18T18:13:35.400Z,89.80
2018-09-18T18:16:39.716Z,90.92
2018-09-18T18:19:44.339Z,90.39
2018-09-18T18:22:48.840Z,90.76
2018-09-18T18:25:53.333Z,90.58
2018-09-18T18:28:57.777Z,90.93
2018-09-18T18:32:02.290Z,90.23
2018-09-18T18:35:06.875Z,89.29
2018-09-18T18:38:11.511Z,89.77
2018-09-18T18:41:16.287Z,89.76
2018-09-18T18:44:20.859Z,89.20
2018-09-18T18:47:25.547Z,88.34
2018-09-18T18:50:30.482Z,87.79
2018-09-18T18:53:35.734Z,87.93
2018-09-18T18:56:40.473Z,87.52
2018-09-18T18:59:45.172Z,87.60
2018-09-18T19:02:49.805Z,87.22
2018-09-18T19:05:55.020Z,87.83
2018-09-18T19:08:59.686Z,87.28
2018-09-18T19:12:04.408Z,88.08
2018-09-18T19:15:09.115Z,88.29
2018-09-18T19:18:13.852Z,89.04
2018-09-18T19:21:18.706Z,88.56
2018-09-18T19:24:23.511Z,89.36
2018-09-18T19:27:29.250Z,90.34
2018-09-18T19:30:34.375Z,90.59
2018-09-18T19:33:39.165Z,90.67
2018-09-18T19:36:43.799Z,91.07
2018-09-18T19:39:48.490Z,91.42
2018-09-18T19:42:53.244Z,91.85
2018-09-18T19:45:57.919Z,91.50
2018-09-18T19:49:03.398Z,91.81
2018-09-18T19:52:08.879Z,92.65
2018-09-18T19:55:13.875Z,93.08
2018-09-18T19:58:18.360Z,92.57
2018-09-18T20:01:22.852Z,93.21
2018-09-18T20:04:27.431Z,93.52
2018-09-18T20:07:32.071Z,94.01
2018-09-18T20:10:36.637Z,94.90
2018-09-18T20:13:41.236Z,95.85
2018-09-18T20:16:45.860Z,95.48
2018-09-18T20:19:50.428Z,96.29
2018-09-18T20:22:55.075Z,95.81
2018-09-18T20:25:59.568Z,96.10
2018-09-18T20:29:03.901Z,96.70
2018-09-18T20:32:08.250Z,96.16
2018-09-18T20:35:12.709Z,96.45
2018-09-18T20:38:17.167Z,96.21
2018-09-18T20:41:21.529Z,97.02
2018-09-18T20:44:25.939Z,97.03
2018-09-18T20:47:30.307Z,97.12
2018-09-18T20:50:34.662Z,95.71
2018-09-18T20:53:38.997Z,96.27
2018-09-18T20:56:43.363Z,96.67
2018-09-18T20:59:47.775Z,96.54
2018-09-18T21:02:52.140Z,97.12
2018-09-18T21:05:56.498Z,97.68
2018-09-18T21:09:00.904Z,97.50
2018-09-18T21:12:05.158Z,97.67
2018-09-18T21:15:09.548Z,98.77
2018-09-18T21:18:13.957Z,99.30
2018-09-18T21:21:18.253Z,99.37
2018-09-18T21:24:22.583Z,99.63
2018-09-18T21:27:26.894Z,100.00
2018-09-18T21:30:31.184Z,100.00
2018-09-18T21:33:35.559Z,100.00
2018-09-18T21:36:39.991Z,100.00
2018-09-18T21:39:44.406Z,100.00
2018-09-18T21:42:48.656Z,100.00
2018-09-18T21:45:53.016Z,100.00
2018-09-18T21:48:57.338Z,100.00
2018-09-18T21:52:01.684Z,100.00
2018-09-18T21:55:05.988Z,100.00
2018-09-18T21:58:10.335Z,100.00
2018-09-18T22:01:15.012Z,100.00
2018-09-18T22:04:19.359Z,100.00
2018-09-18T22:07:23.676Z,100.00
2018-09-18T22:10:28.076Z,100.00
2018-09-18T22:13:32.409Z,100.00
2018-09-18T22:16:36.722Z,100.00
2018-09-18T22:19:41.072Z,100.00
2018-09-18T22:22:45.374Z,100.00
2018-09-18T22:25:49.647Z,100.00
2018-09-18T22:28:54.006Z,100.00
2018-09-18T22:31:58.333Z,100.00
2018-09-18T22:35:02.672Z,100.00
2018-09-18T22:38:07.454Z,100.00
2018-09-18T22:41:11.796Z,100.00
2018-09-18T22:44:16.144Z,100.00
2018-09-18T22:47:20.461Z,100.00
2018-09-18T22:50:24.755Z,100.00
2018-09-18T22:53:29.036Z,100.00
2018-09-18T22:56:33.519Z,100.00
2018-09-18T22:59:37.804Z,100.00
2018-09-18T23:02:42.162Z,100.00
2018-09-18T23:05:46.423Z,100.00
2018-09-18T23:08:50.788Z,100.00
2018-09-18T23:11:55.190Z,100.00
2018-09-18T23:14:59.547Z,100.00
2018-09-18T23:18:03.818Z,100.00
2018-09-18T23:21:08.226Z,100.00
2018-09-18T23:24:12.569Z,100.00
2018-09-18T23:27:16.908Z,100.00
2018-09-18T23:30:22.188Z,100.00
2018-09-18T23:33:26.456Z,100.00
2018-09-18T23:36:30.726Z,100.00
2018-09-18T23:39:35.085Z,100.00
2018-09-18T23:42:39.371Z,100.00
2018-09-18T23:45:43.634Z,100.00
2018-09-18T23:48:47.972Z,100.00
2018-09-18T23:51:52.244Z,100.00
2018-09-18T23:54:56.598Z,100.00
2018-09-18T23:58:00.795Z,100.00
